sensor_id;sensor_type;location;lat;lon;timestamp;P1;durP1;ratioP1;P2;durP2;ratioP2
67503;SDS011;54351;49.108;1.502;2022-07-04T00:01:16;87.03;;;82.38;;
67503;SDS011;54351;49.108;1.502;2022-07-04T00:03:42;87.13;;;82.45;;
67503;SDS011;54351;49.108;1.502;2022-07-04T00:06:08;97.88;;;92.47;;
67503;SDS011;54351;49.108;1.502;2022-07-04T00:08:35;82.00;;;77.35;;
67503;SDS011;54351;49.108;1.502;2022-07-04T00:11:01;118.22;;;111.95;;
67503;SDS011;54351;49.108;1.502;2022-07-04T00:13:27;155.43;;;147.27;;
67503;SDS011;54351;49.108;1.502;2022-07-04T00:15:53;123.60;;;116.75;;
67503;SDS011;54351;49.108;1.502;2022-07-04T00:18:19;137.30;;;129.75;;
67503;SDS011;54351;49.108;1.502;2022-07-04T00:20:45;126.80;;;120.03;;
67503;SDS011;54351;49.108;1.502;2022-07-04T00:23:12;170.07;;;161.07;;
67503;SDS011;54351;49.108;1.502;2022-07-04T00:25:38;164.98;;;156.05;;
67503;SDS011;54351;49.108;1.502;2022-07-04T00:28:04;185.82;;;176.00;;
67503;SDS011;54351;49.108;1.502;2022-07-04T00:30:30;202.57;;;191.80;;
67503;SDS011;54351;49.108;1.502;2022-07-04T00:32:56;207.35;;;196.43;;
67503;SDS011;54351;49.108;1.502;2022-07-04T00:35:22;214.93;;;203.75;;
67503;SDS011;54351;49.108;1.502;2022-07-04T00:37:48;194.23;;;184.18;;
67503;SDS011;54351;49.108;1.502;2022-07-04T00:40:17;181.25;;;171.82;;
67503;SDS011;54351;49.108;1.502;2022-07-04T00:42:43;190.75;;;180.70;;
67503;SDS011;54351;49.108;1.502;2022-07-04T00:45:09;186.77;;;176.95;;
67503;SDS011;54351;49.108;1.502;2022-07-04T00:47:38;193.68;;;183.27;;
67503;SDS011;54351;49.108;1.502;2022-07-04T00:50:04;228.93;;;216.70;;
67503;SDS011;54351;49.108;1.502;2022-07-04T00:52:30;228.80;;;216.85;;
67503;SDS011;54351;49.108;1.502;2022-07-04T00:54:56;215.38;;;204.20;;
67503;SDS011;54351;49.108;1.502;2022-07-04T00:57:25;210.30;;;199.40;;
67503;SDS011;54351;49.108;1.502;2022-07-04T00:59:51;212.32;;;201.32;;
67503;SDS011;54351;49.108;1.502;2022-07-04T01:02:17;198.98;;;188.43;;
67503;SDS011;54351;49.108;1.502;2022-07-04T01:04:43;198.88;;;188.55;;
67503;SDS011;54351;49.108;1.502;2022-07-04T01:07:10;178.30;;;168.98;;
67503;SDS011;54351;49.108;1.502;2022-07-04T01:09:37;175.90;;;166.60;;
67503;SDS011;54351;49.108;1.502;2022-07-04T01:12:03;174.10;;;164.98;;
67503;SDS011;54351;49.108;1.502;2022-07-04T01:14:36;172.57;;;163.35;;
67503;SDS011;54351;49.108;1.502;2022-07-04T01:17:02;168.40;;;159.38;;
67503;SDS011;54351;49.108;1.502;2022-07-04T01:19:28;175.45;;;166.27;;
67503;SDS011;54351;49.108;1.502;2022-07-04T01:21:54;186.40;;;176.65;;
67503;SDS011;54351;49.108;1.502;2022-07-04T01:24:20;176.38;;;167.05;;
67503;SDS011;54351;49.108;1.502;2022-07-04T01:26:46;161.45;;;152.88;;
67503;SDS011;54351;49.108;1.502;2022-07-04T01:29:13;158.05;;;149.70;;
67503;SDS011;54351;49.108;1.502;2022-07-04T01:31:39;159.07;;;150.63;;
67503;SDS011;54351;49.108;1.502;2022-07-04T01:34:05;158.98;;;150.55;;
67503;SDS011;54351;49.108;1.502;2022-07-04T01:36:31;154.60;;;146.32;;
67503;SDS011;54351;49.108;1.502;2022-07-04T01:38:57;147.73;;;139.80;;
67503;SDS011;54351;49.108;1.502;2022-07-04T01:41:24;140.70;;;132.95;;
67503;SDS011;54351;49.108;1.502;2022-07-04T01:43:50;123.40;;;116.38;;
67503;SDS011;54351;49.108;1.502;2022-07-04T01:46:16;130.05;;;123.00;;
67503;SDS011;54351;49.108;1.502;2022-07-04T01:48:42;167.65;;;158.70;;
67503;SDS011;54351;49.108;1.502;2022-07-04T01:51:08;166.45;;;157.57;;
67503;SDS011;54351;49.108;1.502;2022-07-04T01:53:37;166.57;;;157.73;;
67503;SDS011;54351;49.108;1.502;2022-07-04T01:56:03;169.70;;;160.63;;
67503;SDS011;54351;49.108;1.502;2022-07-04T01:58:29;162.27;;;153.40;;
67503;SDS011;54351;49.108;1.502;2022-07-04T02:00:55;162.43;;;153.57;;
67503;SDS011;54351;49.108;1.502;2022-07-04T02:03:40;146.60;;;138.65;;
67503;SDS011;54351;49.108;1.502;2022-07-04T02:06:06;152.32;;;143.80;;
67503;SDS011;54351;49.108;1.502;2022-07-04T02:08:32;171.60;;;162.25;;
67503;SDS011;54351;49.108;1.502;2022-07-04T02:11:17;167.98;;;158.77;;
67503;SDS011;54351;49.108;1.502;2022-07-04T02:13:43;189.98;;;179.95;;
67503;SDS011;54351;49.108;1.502;2022-07-04T02:16:09;219.73;;;207.68;;
67503;SDS011;54351;49.108;1.502;2022-07-04T02:18:35;522.67;;;491.10;;
67503;SDS011;54351;49.108;1.502;2022-07-04T02:21:01;452.80;;;426.25;;
67503;SDS011;54351;49.108;1.502;2022-07-04T02:23:27;297.38;;;281.38;;
67503;SDS011;54351;49.108;1.502;2022-07-04T02:25:53;268.85;;;254.57;;
67503;SDS011;54351;49.108;1.502;2022-07-04T02:28:19;316.27;;;299.17;;
67503;SDS011;54351;49.108;1.502;2022-07-04T02:30:45;318.65;;;301.15;;
67503;SDS011;54351;49.108;1.502;2022-07-04T02:33:11;427.27;;;402.52;;
67503;SDS011;54351;49.108;1.502;2022-07-04T02:35:37;468.25;;;440.52;;
67503;SDS011;54351;49.108;1.502;2022-07-04T02:38:04;436.75;;;411.60;;
67503;SDS011;54351;49.108;1.502;2022-07-04T02:40:30;450.85;;;424.25;;
67503;SDS011;54351;49.108;1.502;2022-07-04T02:42:56;480.23;;;451.27;;
67503;SDS011;54351;49.108;1.502;2022-07-04T02:45:22;452.83;;;426.23;;
67503;SDS011;54351;49.108;1.502;2022-07-04T02:47:48;316.67;;;290.67;;
67503;SDS011;54351;49.108;1.502;2022-07-04T02:50:14;318.65;;;299.65;;
67503;SDS011;54351;49.108;1.502;2022-07-04T02:52:43;396.75;;;373.83;;
67503;SDS011;54351;49.108;1.502;2022-07-04T02:55:09;416.60;;;392.15;;
67503;SDS011;54351;49.108;1.502;2022-07-04T02:57:35;464.83;;;436.90;;
67503;SDS011;54351;49.108;1.502;2022-07-04T03:00:02;450.45;;;423.63;;
67503;SDS011;54351;49.108;1.502;2022-07-04T03:02:28;444.60;;;418.30;;
67503;SDS011;54351;49.108;1.502;2022-07-04T03:04:54;421.48;;;396.38;;
67503;SDS011;54351;49.108;1.502;2022-07-04T03:07:21;447.10;;;420.45;;
67503;SDS011;54351;49.108;1.502;2022-07-04T03:09:47;491.63;;;461.63;;
67503;SDS011;54351;49.108;1.502;2022-07-04T03:12:13;505.83;;;474.70;;
67503;SDS011;54351;49.108;1.502;2022-07-04T03:14:39;495.35;;;464.98;;
67503;SDS011;54351;49.108;1.502;2022-07-04T03:17:05;456.27;;;428.63;;
67503;SDS011;54351;49.108;1.502;2022-07-04T03:19:31;393.27;;;370.35;;
67503;SDS011;54351;49.108;1.502;2022-07-04T03:22:00;399.02;;;375.75;;
67503;SDS011;54351;49.108;1.502;2022-07-04T03:24:26;421.42;;;396.50;;
67503;SDS011;54351;49.108;1.502;2022-07-04T03:26:53;417.88;;;393.13;;
67503;SDS011;54351;49.108;1.502;2022-07-04T03:29:19;416.40;;;391.73;;
67503;SDS011;54351;49.108;1.502;2022-07-04T03:31:45;420.83;;;395.85;;
67503;SDS011;54351;49.108;1.502;2022-07-04T03:34:12;427.45;;;401.30;;
67503;SDS011;54351;49.108;1.502;2022-07-04T03:36:44;448.63;;;421.08;;
67503;SDS011;54351;49.108;1.502;2022-07-04T03:41:39;406.98;;;382.75;;
67503;SDS011;54351;49.108;1.502;2022-07-04T03:44:12;463.52;;;435.08;;
67503;SDS011;54351;49.108;1.502;2022-07-04T03:46:43;463.50;;;435.15;;
67503;SDS011;54351;49.108;1.502;2022-07-04T03:49:12;470.00;;;441.13;;
67503;SDS011;54351;49.108;1.502;2022-07-04T03:51:40;447.08;;;419.90;;
67503;SDS011;54351;49.108;1.502;2022-07-04T03:54:06;361.92;;;341.25;;
67503;SDS011;54351;49.108;1.502;2022-07-04T03:56:32;354.00;;;333.85;;
67503;SDS011;54351;49.108;1.502;2022-07-04T03:59:01;347.98;;;328.33;;
67503;SDS011;54351;49.108;1.502;2022-07-04T04:01:27;352.45;;;332.25;;
67503;SDS011;54351;49.108;1.502;2022-07-04T04:03:58;353.52;;;333.42;;
67503;SDS011;54351;49.108;1.502;2022-07-04T04:06:42;325.85;;;307.38;;
67503;SDS011;54351;49.108;1.502;2022-07-04T04:09:08;347.10;;;327.42;;
67503;SDS011;54351;49.108;1.502;2022-07-04T04:11:44;326.73;;;308.50;;
67503;SDS011;54351;49.108;1.502;2022-07-04T04:14:10;329.17;;;310.63;;
67503;SDS011;54351;49.108;1.502;2022-07-04T04:16:37;336.30;;;317.08;;
67503;SDS011;54351;49.108;1.502;2022-07-04T04:19:03;335.85;;;316.80;;
67503;SDS011;54351;49.108;1.502;2022-07-04T04:21:29;367.48;;;346.20;;
67503;SDS011;54351;49.108;1.502;2022-07-04T04:23:55;403.83;;;379.75;;
67503;SDS011;54351;49.108;1.502;2022-07-04T04:26:21;443.58;;;416.85;;
67503;SDS011;54351;49.108;1.502;2022-07-04T04:28:47;481.10;;;451.35;;
67503;SDS011;54351;49.108;1.502;2022-07-04T04:31:14;429.00;;;403.33;;
67503;SDS011;54351;49.108;1.502;2022-07-04T04:33:42;413.33;;;388.63;;
67503;SDS011;54351;49.108;1.502;2022-07-04T04:36:08;444.55;;;417.88;;
67503;SDS011;54351;49.108;1.502;2022-07-04T04:38:34;440.52;;;414.00;;
67503;SDS011;54351;49.108;1.502;2022-07-04T04:41:00;454.45;;;426.90;;
67503;SDS011;54351;49.108;1.502;2022-07-04T04:43:26;490.63;;;460.02;;
67503;SDS011;54351;49.108;1.502;2022-07-04T04:45:52;465.42;;;437.13;;
67503;SDS011;54351;49.108;1.502;2022-07-04T04:48:18;479.45;;;449.90;;
67503;SDS011;54351;49.108;1.502;2022-07-04T04:50:44;441.42;;;414.27;;
67503;SDS011;54351;49.108;1.502;2022-07-04T04:53:11;495.30;;;463.45;;
67503;SDS011;54351;49.108;1.502;2022-07-04T04:55:37;527.40;;;493.77;;
67503;SDS011;54351;49.108;1.502;2022-07-04T04:58:06;533.75;;;499.70;;
67503;SDS011;54351;49.108;1.502;2022-07-04T05:00:33;504.98;;;473.27;;
67503;SDS011;54351;49.108;1.502;2022-07-04T05:03:00;500.30;;;469.17;;
67503;SDS011;54351;49.108;1.502;2022-07-04T05:05:27;481.13;;;451.85;;
67503;SDS011;54351;49.108;1.502;2022-07-04T05:08:03;482.20;;;452.70;;
67503;SDS011;54351;49.108;1.502;2022-07-04T05:10:32;493.90;;;463.65;;
67503;SDS011;54351;49.108;1.502;2022-07-04T05:12:58;456.05;;;428.17;;
67503;SDS011;54351;49.108;1.502;2022-07-04T05:15:28;480.42;;;451.23;;
67503;SDS011;54351;49.108;1.502;2022-07-04T05:17:54;463.02;;;435.23;;
67503;SDS011;54351;49.108;1.502;2022-07-04T05:20:20;442.23;;;416.15;;
67503;SDS011;54351;49.108;1.502;2022-07-04T05:22:46;436.08;;;410.38;;
67503;SDS011;54351;49.108;1.502;2022-07-04T05:25:13;404.05;;;380.65;;
67503;SDS011;54351;49.108;1.502;2022-07-04T05:27:39;389.88;;;366.88;;
67503;SDS011;54351;49.108;1.502;2022-07-04T05:30:06;355.77;;;335.35;;
67503;SDS011;54351;49.108;1.502;2022-07-04T05:32:32;274.70;;;259.13;;
67503;SDS011;54351;49.108;1.502;2022-07-04T05:34:58;286.45;;;270.55;;
67503;SDS011;54351;49.108;1.502;2022-07-04T05:37:24;269.13;;;254.13;;
67503;SDS011;54351;49.108;1.502;2022-07-04T05:39:58;277.17;;;262.05;;
67503;SDS011;54351;49.108;1.502;2022-07-04T05:42:25;303.17;;;286.73;;
67503;SDS011;54351;49.108;1.502;2022-07-04T05:44:52;239.07;;;225.77;;
67503;SDS011;54351;49.108;1.502;2022-07-04T05:47:19;354.55;;;334.15;;
67503;SDS011;54351;49.108;1.502;2022-07-04T05:49:49;239.32;;;225.90;;
67503;SDS011;54351;49.108;1.502;2022-07-04T05:52:15;449.83;;;422.85;;
67503;SDS011;54351;49.108;1.502;2022-07-04T05:54:41;425.90;;;400.08;;
67503;SDS011;54351;49.108;1.502;2022-07-04T05:57:07;445.60;;;419.20;;
67503;SDS011;54351;49.108;1.502;2022-07-04T05:59:34;460.55;;;433.25;;
67503;SDS011;54351;49.108;1.502;2022-07-04T06:02:00;456.15;;;428.92;;
67503;SDS011;54351;49.108;1.502;2022-07-04T06:04:26;509.55;;;479.25;;
67503;SDS011;54351;49.108;1.502;2022-07-04T06:06:52;487.73;;;458.73;;
67503;SDS011;54351;49.108;1.502;2022-07-04T06:09:18;451.10;;;424.83;;
67503;SDS011;54351;49.108;1.502;2022-07-04T06:11:44;501.05;;;471.17;;
67503;SDS011;54351;49.108;1.502;2022-07-04T06:14:10;490.17;;;461.13;;
67503;SDS011;54351;49.108;1.502;2022-07-04T06:16:36;484.90;;;456.25;;
67503;SDS011;54351;49.108;1.502;2022-07-04T06:19:03;426.75;;;402.35;;
67503;SDS011;54351;49.108;1.502;2022-07-04T06:21:29;499.08;;;469.50;;
67503;SDS011;54351;49.108;1.502;2022-07-04T06:23:55;433.42;;;408.48;;
67503;SDS011;54351;49.108;1.502;2022-07-04T06:26:23;410.88;;;387.70;;
67503;SDS011;54351;49.108;1.502;2022-07-04T06:28:49;414.08;;;390.95;;
67503;SDS011;54351;49.108;1.502;2022-07-04T06:31:15;405.02;;;381.90;;
67503;SDS011;54351;49.108;1.502;2022-07-04T06:33:42;420.40;;;397.40;;
67503;SDS011;54351;49.108;1.502;2022-07-04T06:36:26;425.65;;;401.92;;
67503;SDS011;54351;49.108;1.502;2022-07-04T06:38:52;424.65;;;401.08;;
67503;SDS011;54351;49.108;1.502;2022-07-04T06:41:18;435.38;;;411.33;;
67503;SDS011;54351;49.108;1.502;2022-07-04T06:43:44;453.02;;;428.08;;
67503;SDS011;54351;49.108;1.502;2022-07-04T06:46:11;397.42;;;375.38;;
67503;SDS011;54351;49.108;1.502;2022-07-04T06:48:37;382.23;;;361.10;;
67503;SDS011;54351;49.108;1.502;2022-07-04T06:51:03;372.48;;;351.65;;
67503;SDS011;54351;49.108;1.502;2022-07-04T06:53:29;358.73;;;339.33;;
67503;SDS011;54351;49.108;1.502;2022-07-04T06:55:55;370.50;;;350.15;;
67503;SDS011;54351;49.108;1.502;2022-07-04T06:58:21;337.83;;;319.25;;
67503;SDS011;54351;49.108;1.502;2022-07-04T07:00:47;330.27;;;312.52;;
67503;SDS011;54351;49.108;1.502;2022-07-04T07:03:13;345.33;;;326.65;;
67503;SDS011;54351;49.108;1.502;2022-07-04T07:05:39;351.23;;;332.35;;
67503;SDS011;54351;49.108;1.502;2022-07-04T07:08:06;356.20;;;336.75;;
67503;SDS011;54351;49.108;1.502;2022-07-04T07:10:32;340.15;;;321.70;;
67503;SDS011;54351;49.108;1.502;2022-07-04T07:12:58;324.10;;;306.77;;
67503;SDS011;54351;49.108;1.502;2022-07-04T07:15:25;369.50;;;348.88;;
67503;SDS011;54351;49.108;1.502;2022-07-04T07:17:51;312.67;;;296.05;;
67503;SDS011;54351;49.108;1.502;2022-07-04T07:20:17;325.50;;;308.27;;
67503;SDS011;54351;49.108;1.502;2022-07-04T07:22:44;313.73;;;297.10;;
67503;SDS011;54351;49.108;1.502;2022-07-04T07:25:10;308.48;;;292.30;;
67503;SDS011;54351;49.108;1.502;2022-07-04T07:27:40;295.67;;;279.80;;
67503;SDS011;54351;49.108;1.502;2022-07-04T07:30:06;318.40;;;301.30;;
67503;SDS011;54351;49.108;1.502;2022-07-04T07:32:33;349.30;;;330.60;;
67503;SDS011;54351;49.108;1.502;2022-07-04T07:35:00;222.73;;;210.93;;
67503;SDS011;54351;49.108;1.502;2022-07-04T07:37:26;211.82;;;200.63;;
67503;SDS011;54351;49.108;1.502;2022-07-04T07:39:53;256.38;;;243.07;;
67503;SDS011;54351;49.108;1.502;2022-07-04T07:42:19;212.77;;;201.32;;
67503;SDS011;54351;49.108;1.502;2022-07-04T07:44:45;189.70;;;179.73;;
67503;SDS011;54351;49.108;1.502;2022-07-04T07:47:12;138.77;;;130.95;;
67503;SDS011;54351;49.108;1.502;2022-07-04T07:49:38;153.25;;;145.05;;
67503;SDS011;54351;49.108;1.502;2022-07-04T07:52:04;131.70;;;124.07;;
67503;SDS011;54351;49.108;1.502;2022-07-04T07:54:30;121.32;;;114.53;;
67503;SDS011;54351;49.108;1.502;2022-07-04T07:56:56;161.68;;;152.85;;
67503;SDS011;54351;49.108;1.502;2022-07-04T07:59:22;118.32;;;111.93;;
67503;SDS011;54351;49.108;1.502;2022-07-04T08:01:48;104.57;;;98.60;;
67503;SDS011;54351;49.108;1.502;2022-07-04T08:04:15;113.97;;;107.63;;
67503;SDS011;54351;49.108;1.502;2022-07-04T08:06:59;105.00;;;99.03;;
67503;SDS011;54351;49.108;1.502;2022-07-04T08:09:25;70.32;;;66.55;;
67503;SDS011;54351;49.108;1.502;2022-07-04T08:11:51;63.50;;;59.92;;
67503;SDS011;54351;49.108;1.502;2022-07-04T08:14:17;65.18;;;61.47;;
67503;SDS011;54351;49.108;1.502;2022-07-04T08:16:43;54.63;;;51.58;;
67503;SDS011;54351;49.108;1.502;2022-07-04T08:19:09;48.33;;;45.45;;
67503;SDS011;54351;49.108;1.502;2022-07-04T08:21:35;40.65;;;38.35;;
67503;SDS011;54351;49.108;1.502;2022-07-04T08:24:02;32.20;;;30.33;;
67503;SDS011;54351;49.108;1.502;2022-07-04T08:26:28;35.00;;;33.03;;
67503;SDS011;54351;49.108;1.502;2022-07-04T08:28:54;41.22;;;38.88;;
67503;SDS011;54351;49.108;1.502;2022-07-04T08:31:22;43.05;;;40.65;;
67503;SDS011;54351;49.108;1.502;2022-07-04T08:33:49;24.40;;;22.90;;
67503;SDS011;54351;49.108;1.502;2022-07-04T08:36:16;38.30;;;36.15;;
67503;SDS011;54351;49.108;1.502;2022-07-04T08:38:42;23.17;;;21.52;;
67503;SDS011;54351;49.108;1.502;2022-07-04T08:41:08;17.73;;;16.52;;
67503;SDS011;54351;49.108;1.502;2022-07-04T08:43:34;17.23;;;16.02;;
67503;SDS011;54351;49.108;1.502;2022-07-04T08:46:05;9.15;;;8.30;;
67503;SDS011;54351;49.108;1.502;2022-07-04T08:48:31;8.95;;;8.05;;
67503;SDS011;54351;49.108;1.502;2022-07-04T08:51:07;8.73;;;8.13;;
67503;SDS011;54351;49.108;1.502;2022-07-04T08:53:35;9.57;;;8.60;;
67503;SDS011;54351;49.108;1.502;2022-07-04T08:56:04;9.38;;;8.57;;
67503;SDS011;54351;49.108;1.502;2022-07-04T08:58:49;11.35;;;10.52;;
67503;SDS011;54351;49.108;1.502;2022-07-04T09:01:15;4.32;;;3.92;;
67503;SDS011;54351;49.108;1.502;2022-07-04T09:03:43;3.03;;;1.33;;
67503;SDS011;54351;49.108;1.502;2022-07-04T09:06:10;5.30;;;1.50;;
67503;SDS011;54351;49.108;1.502;2022-07-04T09:08:40;4.18;;;3.03;;
67503;SDS011;54351;49.108;1.502;2022-07-04T09:11:07;6.85;;;5.68;;
67503;SDS011;54351;49.108;1.502;2022-07-04T09:13:33;6.60;;;6.10;;
67503;SDS011;54351;49.108;1.502;2022-07-04T09:16:00;3.92;;;1.63;;
67503;SDS011;54351;49.108;1.502;2022-07-04T09:18:27;4.45;;;1.83;;
67503;SDS011;54351;49.108;1.502;2022-07-04T09:20:54;4.75;;;1.50;;
67503;SDS011;54351;49.108;1.502;2022-07-04T09:23:28;1.85;;;1.20;;
67503;SDS011;54351;49.108;1.502;2022-07-04T09:28:32;3.40;;;0.98;;
67503;SDS011;54351;49.108;1.502;2022-07-04T09:30:58;2.55;;;1.40;;
67503;SDS011;54351;49.108;1.502;2022-07-04T09:33:43;3.83;;;1.20;;
67503;SDS011;54351;49.108;1.502;2022-07-04T09:36:13;2.60;;;1.13;;
67503;SDS011;54351;49.108;1.502;2022-07-04T09:38:39;4.05;;;1.10;;
67503;SDS011;54351;49.108;1.502;2022-07-04T09:41:05;2.45;;;1.20;;
67503;SDS011;54351;49.108;1.502;2022-07-04T09:44:05;1.17;;;1.08;;
67503;SDS011;54351;49.108;1.502;2022-07-04T09:46:32;2.97;;;1.20;;
67503;SDS011;54351;49.108;1.502;2022-07-04T09:48:59;8.35;;;1.10;;
67503;SDS011;54351;49.108;1.502;2022-07-04T09:51:35;2.75;;;1.27;;
67503;SDS011;54351;49.108;1.502;2022-07-04T09:54:12;3.22;;;1.08;;
67503;SDS011;54351;49.108;1.502;2022-07-04T09:56:44;5.07;;;1.25;;
67503;SDS011;54351;49.108;1.502;2022-07-04T09:59:10;2.55;;;1.15;;
67503;SDS011;54351;49.108;1.502;2022-07-04T10:01:37;3.40;;;1.27;;
67503;SDS011;54351;49.108;1.502;2022-07-04T10:04:05;3.15;;;1.20;;
67503;SDS011;54351;49.108;1.502;2022-07-04T10:06:31;3.70;;;1.15;;
67503;SDS011;54351;49.108;1.502;2022-07-04T10:09:08;2.15;;;1.30;;
67503;SDS011;54351;49.108;1.502;2022-07-04T10:11:35;3.40;;;1.20;;
67503;SDS011;54351;49.108;1.502;2022-07-04T10:14:03;1.65;;;1.10;;
67503;SDS011;54351;49.108;1.502;2022-07-04T10:16:30;2.50;;;1.10;;
67503;SDS011;54351;49.108;1.502;2022-07-04T10:18:56;5.65;;;0.88;;
67503;SDS011;54351;49.108;1.502;2022-07-04T10:21:23;3.60;;;1.10;;
67503;SDS011;54351;49.108;1.502;2022-07-04T10:23:50;4.10;;;1.15;;
67503;SDS011;54351;49.108;1.502;2022-07-04T10:26:20;2.88;;;1.13;;
67503;SDS011;54351;49.108;1.502;2022-07-04T10:28:47;3.80;;;1.63;;
67503;SDS011;54351;49.108;1.502;2022-07-04T10:31:15;1.73;;;0.95;;
67503;SDS011;54351;49.108;1.502;2022-07-04T10:33:45;2.22;;;0.80;;
67503;SDS011;54351;49.108;1.502;2022-07-04T10:36:15;1.83;;;0.85;;
67503;SDS011;54351;49.108;1.502;2022-07-04T10:38:49;5.00;;;1.20;;
67503;SDS011;54351;49.108;1.502;2022-07-04T10:41:16;5.07;;;1.30;;
67503;SDS011;54351;49.108;1.502;2022-07-04T10:43:56;3.23;;;0.87;;
67503;SDS011;54351;49.108;1.502;2022-07-04T10:48:56;1.70;;;0.80;;
67503;SDS011;54351;49.108;1.502;2022-07-04T10:54:18;0.88;;;0.60;;
67503;SDS011;54351;49.108;1.502;2022-07-04T10:59:18;2.95;;;0.70;;
67503;SDS011;54351;49.108;1.502;2022-07-04T11:01:52;3.45;;;0.70;;
67503;SDS011;54351;49.108;1.502;2022-07-04T11:05:00;3.45;;;0.70;;
67503;SDS011;54351;49.108;1.502;2022-07-04T11:07:07;2.70;;;0.57;;
67503;SDS011;54351;49.108;1.502;2022-07-04T11:09:33;3.13;;;0.60;;
67503;SDS011;54351;49.108;1.502;2022-07-04T11:12:00;2.00;;;0.60;;
67503;SDS011;54351;49.108;1.502;2022-07-04T11:17:03;2.22;;;0.70;;
67503;SDS011;54351;49.108;1.502;2022-07-04T11:19:29;1.63;;;0.60;;
67503;SDS011;54351;49.108;1.502;2022-07-04T11:21:55;2.65;;;0.75;;
67503;SDS011;54351;49.108;1.502;2022-07-04T11:24:22;1.15;;;0.52;;
67503;SDS011;54351;49.108;1.502;2022-07-04T11:26:49;1.05;;;0.50;;
67503;SDS011;54351;49.108;1.502;2022-07-04T11:29:15;1.70;;;0.60;;
67503;SDS011;54351;49.108;1.502;2022-07-04T11:31:42;2.67;;;0.50;;
67503;SDS011;54351;49.108;1.502;2022-07-04T11:34:09;1.95;;;0.60;;
67503;SDS011;54351;49.108;1.502;2022-07-04T11:36:35;2.83;;;0.50;;
67503;SDS011;54351;49.108;1.502;2022-07-04T11:39:05;3.00;;;0.80;;
67503;SDS011;54351;49.108;1.502;2022-07-04T11:41:32;1.38;;;0.73;;
67503;SDS011;54351;49.108;1.502;2022-07-04T11:44:18;1.70;;;0.50;;
67503;SDS011;54351;49.108;1.502;2022-07-04T11:49:29;2.88;;;0.60;;
67503;SDS011;54351;49.108;1.502;2022-07-04T11:51:55;2.47;;;0.75;;
67503;SDS011;54351;49.108;1.502;2022-07-04T11:54:21;1.13;;;0.65;;
67503;SDS011;54351;49.108;1.502;2022-07-04T11:56:48;2.35;;;0.70;;
67503;SDS011;54351;49.108;1.502;2022-07-04T11:59:17;1.70;;;0.60;;
67503;SDS011;54351;49.108;1.502;2022-07-04T12:01:43;1.52;;;0.57;;
67503;SDS011;54351;49.108;1.502;2022-07-04T12:04:13;2.70;;;0.60;;
67503;SDS011;54351;49.108;1.502;2022-07-04T12:06:40;4.28;;;0.70;;
67503;SDS011;54351;49.108;1.502;2022-07-04T12:09:07;2.13;;;0.50;;
67503;SDS011;54351;49.108;1.502;2022-07-04T12:14:17;2.60;;;0.60;;
67503;SDS011;54351;49.108;1.502;2022-07-04T12:16:44;2.90;;;0.60;;
67503;SDS011;54351;49.108;1.502;2022-07-04T12:19:12;3.80;;;0.60;;
67503;SDS011;54351;49.108;1.502;2022-07-04T12:21:38;2.03;;;0.80;;
67503;SDS011;54351;49.108;1.502;2022-07-04T12:24:05;1.80;;;0.50;;
67503;SDS011;54351;49.108;1.502;2022-07-04T12:26:31;3.00;;;0.55;;
67503;SDS011;54351;49.108;1.502;2022-07-04T12:28:57;1.08;;;0.40;;
67503;SDS011;54351;49.108;1.502;2022-07-04T12:31:39;1.42;;;0.50;;
67503;SDS011;54351;49.108;1.502;2022-07-04T12:34:16;1.52;;;0.47;;
67503;SDS011;54351;49.108;1.502;2022-07-04T12:39:35;1.33;;;0.47;;
67503;SDS011;54351;49.108;1.502;2022-07-04T12:42:08;1.75;;;0.70;;
67503;SDS011;54351;49.108;1.502;2022-07-04T12:44:35;1.63;;;0.40;;
67503;SDS011;54351;49.108;1.502;2022-07-04T12:47:04;0.80;;;0.50;;
67503;SDS011;54351;49.108;1.502;2022-07-04T12:49:31;1.63;;;0.50;;
67503;SDS011;54351;49.108;1.502;2022-07-04T12:52:31;2.42;;;0.60;;
67503;SDS011;54351;49.108;1.502;2022-07-04T12:55:06;1.25;;;0.60;;
67503;SDS011;54351;49.108;1.502;2022-07-04T12:57:35;0.60;;;0.40;;
67503;SDS011;54351;49.108;1.502;2022-07-04T13:00:03;2.65;;;0.55;;
67503;SDS011;54351;49.108;1.502;2022-07-04T13:02:30;3.15;;;0.50;;
67503;SDS011;54351;49.108;1.502;2022-07-04T13:04:58;4.13;;;0.60;;
67503;SDS011;54351;49.108;1.502;2022-07-04T13:07:24;0.98;;;0.50;;
67503;SDS011;54351;49.108;1.502;2022-07-04T13:09:50;2.80;;;0.60;;
67503;SDS011;54351;49.108;1.502;2022-07-04T13:12:16;6.10;;;0.70;;
67503;SDS011;54351;49.108;1.502;2022-07-04T13:14:55;2.88;;;0.60;;
67503;SDS011;54351;49.108;1.502;2022-07-04T13:17:21;3.00;;;0.70;;
67503;SDS011;54351;49.108;1.502;2022-07-04T13:19:48;4.18;;;0.50;;
67503;SDS011;54351;49.108;1.502;2022-07-04T13:22:14;1.90;;;0.50;;
67503;SDS011;54351;49.108;1.502;2022-07-04T13:24:40;5.03;;;0.63;;
67503;SDS011;54351;49.108;1.502;2022-07-04T13:27:06;2.28;;;0.50;;
67503;SDS011;54351;49.108;1.502;2022-07-04T13:29:32;1.73;;;0.60;;
67503;SDS011;54351;49.108;1.502;2022-07-04T13:31:59;1.73;;;0.40;;
67503;SDS011;54351;49.108;1.502;2022-07-04T13:34:25;5.53;;;0.63;;
67503;SDS011;54351;49.108;1.502;2022-07-04T13:36:51;1.23;;;0.60;;
67503;SDS011;54351;49.108;1.502;2022-07-04T13:39:19;1.80;;;0.70;;
67503;SDS011;54351;49.108;1.502;2022-07-04T13:41:46;4.70;;;0.80;;
67503;SDS011;54351;49.108;1.502;2022-07-04T13:44:12;4.20;;;0.70;;
67503;SDS011;54351;49.108;1.502;2022-07-04T13:46:41;1.95;;;0.70;;
67503;SDS011;54351;49.108;1.502;2022-07-04T13:49:07;5.55;;;0.70;;
67503;SDS011;54351;49.108;1.502;2022-07-04T13:51:33;2.22;;;0.55;;
67503;SDS011;54351;49.108;1.502;2022-07-04T13:54:00;0.93;;;0.60;;
67503;SDS011;54351;49.108;1.502;2022-07-04T13:56:27;1.58;;;0.70;;
67503;SDS011;54351;49.108;1.502;2022-07-04T13:58:53;2.15;;;0.68;;
67503;SDS011;54351;49.108;1.502;2022-07-04T14:01:19;4.65;;;0.60;;
67503;SDS011;54351;49.108;1.502;2022-07-04T14:03:46;1.70;;;0.80;;
67503;SDS011;54351;49.108;1.502;2022-07-04T14:06:12;1.80;;;0.70;;
67503;SDS011;54351;49.108;1.502;2022-07-04T14:08:38;2.35;;;0.70;;
67503;SDS011;54351;49.108;1.502;2022-07-04T14:11:04;2.22;;;0.70;;
67503;SDS011;54351;49.108;1.502;2022-07-04T14:13:30;1.67;;;0.60;;
67503;SDS011;54351;49.108;1.502;2022-07-04T14:15:56;1.50;;;0.60;;
67503;SDS011;54351;49.108;1.502;2022-07-04T14:18:22;3.53;;;0.90;;
67503;SDS011;54351;49.108;1.502;2022-07-04T14:20:49;1.67;;;0.85;;
67503;SDS011;54351;49.108;1.502;2022-07-04T14:23:17;2.50;;;0.95;;
67503;SDS011;54351;49.108;1.502;2022-07-04T14:26:04;1.63;;;0.80;;
67503;SDS011;54351;49.108;1.502;2022-07-04T14:28:31;1.48;;;0.90;;
67503;SDS011;54351;49.108;1.502;2022-07-04T14:30:57;2.00;;;0.80;;
67503;SDS011;54351;49.108;1.502;2022-07-04T14:33:23;2.63;;;0.80;;
67503;SDS011;54351;49.108;1.502;2022-07-04T14:35:50;3.92;;;0.90;;
67503;SDS011;54351;49.108;1.502;2022-07-04T14:38:16;3.25;;;0.90;;
67503;SDS011;54351;49.108;1.502;2022-07-04T14:40:42;3.17;;;0.85;;
67503;SDS011;54351;49.108;1.502;2022-07-04T14:43:13;2.13;;;0.80;;
67503;SDS011;54351;49.108;1.502;2022-07-04T14:45:39;5.18;;;0.93;;